sensor_id;sensor_type;location;lat;lon;timestamp;temperature;humidity
18335;DHT22;9293;49.524;10.964;2023-05-15T00:00:43;11.70;99.90
18335;DHT22;9293;49.524;10.964;2023-05-15T00:03:11;11.70;99.90
18335;DHT22;9293;49.524;10.964;2023-05-15T00:05:39;11.60;99.90
18335;DHT22;9293;49.524;10.964;2023-05-15T00:08:07;11.50;99.90
18335;DHT22;9293;49.524;10.964;2023-05-15T00:10:36;11.40;99.90
18335;DHT22;9293;49.524;10.964;2023-05-15T00:13:08;11.40;99.90
18335;DHT22;9293;49.524;10.964;2023-05-15T00:15:36;11.40;99.90
18335;DHT22;9293;49.524;10.964;2023-05-15T00:18:04;11.50;99.90
18335;DHT22;9293;49.524;10.964;2023-05-15T00:20:32;11.50;99.90
18335;DHT22;9293;49.524;10.964;2023-05-15T00:23:00;11.70;99.90
18335;DHT22;9293;49.524;10.964;2023-05-15T00:25:28;11.70;99.90
18335;DHT22;9293;49.524;10.964;2023-05-15T00:27:57;11.70;99.90
18335;DHT22;9293;49.524;10.964;2023-05-15T00:30:25;11.60;99.90
18335;DHT22;9293;49.524;10.964;2023-05-15T00:32:53;11.50;99.90
18335;DHT22;9293;49.524;10.964;2023-05-15T00:35:21;11.60;99.90
18335;DHT22;9293;49.524;10.964;2023-05-15T00:37:50;11.60;99.90
18335;DHT22;9293;49.524;10.964;2023-05-15T00:40:19;11.60;99.90
18335;DHT22;9293;49.524;10.964;2023-05-15T00:42:47;11.50;99.90
18335;DHT22;9293;49.524;10.964;2023-05-15T00:45:16;11.40;99.90
18335;DHT22;9293;49.524;10.964;2023-05-15T00:47:46;11.30;99.90
18335;DHT22;9293;49.524;10.964;2023-05-15T00:50:14;11.30;99.90
18335;DHT22;9293;49.524;10.964;2023-05-15T00:52:42;11.40;99.90
18335;DHT22;9293;49.524;10.964;2023-05-15T00:55:10;11.40;99.90
18335;DHT22;9293;49.524;10.964;2023-05-15T00:57:39;11.50;99.90
18335;DHT22;9293;49.524;10.964;2023-05-15T01:00:08;11.50;99.90
18335;DHT22;9293;49.524;10.964;2023-05-15T01:02:37;11.50;99.90
18335;DHT22;9293;49.524;10.964;2023-05-15T01:05:06;11.40;99.90
18335;DHT22;9293;49.524;10.964;2023-05-15T01:07:37;11.30;99.90
18335;DHT22;9293;49.524;10.964;2023-05-15T01:10:08;11.30;99.90
18335;DHT22;9293;49.524;10.964;2023-05-15T01:12:36;11.20;99.90
18335;DHT22;9293;49.524;10.964;2023-05-15T01:15:07;11.10;99.90
18335;DHT22;9293;49.524;10.964;2023-05-15T01:17:35;11.10;99.90
18335;DHT22;9293;49.524;10.964;2023-05-15T01:20:03;11.10;99.90
18335;DHT22;9293;49.524;10.964;2023-05-15T01:22:45;10.90;99.90
18335;DHT22;9293;49.524;10.964;2023-05-15T01:25:36;10.90;99.90
18335;DHT22;9293;49.524;10.964;2023-05-15T01:28:21;10.80;99.90
18335;DHT22;9293;49.524;10.964;2023-05-15T01:30:49;10.90;99.90
18335;DHT22;9293;49.524;10.964;2023-05-15T01:33:29;11.00;99.90
18335;DHT22;9293;49.524;10.964;2023-05-15T01:36:11;10.90;99.90
18335;DHT22;9293;49.524;10.964;2023-05-15T01:38:48;10.90;99.90
18335;DHT22;9293;49.524;10.964;2023-05-15T01:41:23;11.00;99.90
18335;DHT22;9293;49.524;10.964;2023-05-15T01:43:51;11.00;99.90
18335;DHT22;9293;49.524;10.964;2023-05-15T01:46:22;11.10;99.90
18335;DHT22;9293;49.524;10.964;2023-05-15T01:48:50;11.20;99.90
18335;DHT22;9293;49.524;10.964;2023-05-15T01:51:19;11.10;99.90
18335;DHT22;9293;49.524;10.964;2023-05-15T01:53:47;11.00;99.90
18335;DHT22;9293;49.524;10.964;2023-05-15T01:56:18;11.00;99.90
18335;DHT22;9293;49.524;10.964;2023-05-15T01:58:46;11.10;99.90
18335;DHT22;9293;49.524;10.964;2023-05-15T02:01:15;11.10;99.90
18335;DHT22;9293;49.524;10.964;2023-05-15T02:03:44;11.10;99.90
18335;DHT22;9293;49.524;10.964;2023-05-15T02:06:13;11.10;99.90
18335;DHT22;9293;49.524;10.964;2023-05-15T02:08:41;11.10;99.90
18335;DHT22;9293;49.524;10.964;2023-05-15T02:11:10;11.00;99.90
18335;DHT22;9293;49.524;10.964;2023-05-15T02:13:39;10.90;99.90
18335;DHT22;9293;49.524;10.964;2023-05-15T02:16:07;10.90;99.90
18335;DHT22;9293;49.524;10.964;2023-05-15T02:18:35;10.90;99.90
18335;DHT22;9293;49.524;10.964;2023-05-15T02:21:04;10.90;99.90
18335;DHT22;9293;49.524;10.964;2023-05-15T02:23:34;10.90;99.90
18335;DHT22;9293;49.524;10.964;2023-05-15T02:28:53;10.60;99.90
18335;DHT22;9293;49.524;10.964;2023-05-15T02:34:05;10.40;99.90
18335;DHT22;9293;49.524;10.964;2023-05-15T02:36:36;10.40;99.90
18335;DHT22;9293;49.524;10.964;2023-05-15T02:39:05;10.50;99.90
18335;DHT22;9293;49.524;10.964;2023-05-15T02:41:33;10.50;99.90
18335;DHT22;9293;49.524;10.964;2023-05-15T02:44:02;10.40;99.90
18335;DHT22;9293;49.524;10.964;2023-05-15T02:46:30;10.40;99.90
18335;DHT22;9293;49.524;10.964;2023-05-15T02:48:59;10.50;99.90
18335;DHT22;9293;49.524;10.964;2023-05-15T02:51:27;10.50;99.90
18335;DHT22;9293;49.524;10.964;2023-05-15T02:53:58;10.50;99.90
18335;DHT22;9293;49.524;10.964;2023-05-15T02:56:26;10.50;99.90
18335;DHT22;9293;49.524;10.964;2023-05-15T02:58:54;10.50;99.90
18335;DHT22;9293;49.524;10.964;2023-05-15T03:01:23;10.50;99.90
18335;DHT22;9293;49.524;10.964;2023-05-15T03:03:51;10.50;99.90
18335;DHT22;9293;49.524;10.964;2023-05-15T03:06:19;10.30;99.90
18335;DHT22;9293;49.524;10.964;2023-05-15T03:08:47;10.20;99.90
18335;DHT22;9293;49.524;10.964;2023-05-15T03:11:16;10.00;99.90
18335;DHT22;9293;49.524;10.964;2023-05-15T03:13:46;10.00;99.90
18335;DHT22;9293;49.524;10.964;2023-05-15T03:16:15;10.00;99.90
18335;DHT22;9293;49.524;10.964;2023-05-15T03:18:43;10.00;99.90
18335;DHT22;9293;49.524;10.964;2023-05-15T03:21:11;9.80;99.90
18335;DHT22;9293;49.524;10.964;2023-05-15T03:23:39;9.70;99.90
18335;DHT22;9293;49.524;10.964;2023-05-15T03:26:07;9.60;99.90
18335;DHT22;9293;49.524;10.964;2023-05-15T03:32:43;9.50;99.90
18335;DHT22;9293;49.524;10.964;2023-05-15T03:35:11;9.40;99.90
18335;DHT22;9293;49.524;10.964;2023-05-15T03:37:39;9.40;99.90
18335;DHT22;9293;49.524;10.964;2023-05-15T03:40:09;9.60;99.90
18335;DHT22;9293;49.524;10.964;2023-05-15T03:42:38;9.60;99.90
18335;DHT22;9293;49.524;10.964;2023-05-15T03:45:06;9.70;99.90
18335;DHT22;9293;49.524;10.964;2023-05-15T03:47:35;9.80;99.90
18335;DHT22;9293;49.524;10.964;2023-05-15T03:50:03;9.70;99.90
18335;DHT22;9293;49.524;10.964;2023-05-15T03:52:32;9.70;99.90
18335;DHT22;9293;49.524;10.964;2023-05-15T03:55:00;9.70;99.90
18335;DHT22;9293;49.524;10.964;2023-05-15T03:57:28;9.80;99.90
18335;DHT22;9293;49.524;10.964;2023-05-15T03:59:56;9.70;99.90
18335;DHT22;9293;49.524;10.964;2023-05-15T04:02:24;9.70;99.90
18335;DHT22;9293;49.524;10.964;2023-05-15T04:04:52;9.80;99.90
18335;DHT22;9293;49.524;10.964;2023-05-15T04:07:20;9.90;99.90
18335;DHT22;9293;49.524;10.964;2023-05-15T04:09:51;9.90;99.90
18335;DHT22;9293;49.524;10.964;2023-05-15T04:12:22;9.80;99.90
18335;DHT22;9293;49.524;10.964;2023-05-15T04:14:52;9.70;99.90
18335;DHT22;9293;49.524;10.964;2023-05-15T04:17:20;9.70;99.90
18335;DHT22;9293;49.524;10.964;2023-05-15T04:19:48;9.70;99.90
18335;DHT22;9293;49.524;10.964;2023-05-15T04:22:17;9.70;99.90
18335;DHT22;9293;49.524;10.964;2023-05-15T04:24:45;9.70;99.90
18335;DHT22;9293;49.524;10.964;2023-05-15T04:27:13;9.70;99.90
18335;DHT22;9293;49.524;10.964;2023-05-15T04:29:41;9.70;99.90
18335;DHT22;9293;49.524;10.964;2023-05-15T04:32:09;9.70;99.90
18335;DHT22;9293;49.524;10.964;2023-05-15T04:34:39;9.60;99.90
18335;DHT22;9293;49.524;10.964;2023-05-15T04:37:08;9.70;99.90
18335;DHT22;9293;49.524;10.964;2023-05-15T04:39:36;9.80;99.90
18335;DHT22;9293;49.524;10.964;2023-05-15T04:42:04;9.70;99.90
18335;DHT22;9293;49.524;10.964;2023-05-15T04:44:32;9.80;99.90
18335;DHT22;9293;49.524;10.964;2023-05-15T04:47:00;9.90;99.90
18335;DHT22;9293;49.524;10.964;2023-05-15T04:49:28;10.00;99.90
18335;DHT22;9293;49.524;10.964;2023-05-15T04:51:56;10.10;99.90
18335;DHT22;9293;49.524;10.964;2023-05-15T04:54:24;10.20;99.90
18335;DHT22;9293;49.524;10.964;2023-05-15T04:56:52;10.20;99.90
18335;DHT22;9293;49.524;10.964;2023-05-15T04:59:21;10.30;99.90
18335;DHT22;9293;49.524;10.964;2023-05-15T05:01:52;10.40;99.90
18335;DHT22;9293;49.524;10.964;2023-05-15T05:04:20;10.50;99.90
18335;DHT22;9293;49.524;10.964;2023-05-15T05:06:48;10.60;99.90
18335;DHT22;9293;49.524;10.964;2023-05-15T05:09:17;10.80;99.90
18335;DHT22;9293;49.524;10.964;2023-05-15T05:11:46;11.00;99.90
18335;DHT22;9293;49.524;10.964;2023-05-15T05:14:14;11.20;99.90
18335;DHT22;9293;49.524;10.964;2023-05-15T05:16:45;11.40;99.90
18335;DHT22;9293;49.524;10.964;2023-05-15T05:19:13;11.60;99.90
18335;DHT22;9293;49.524;10.964;2023-05-15T05:21:41;11.80;99.90
18335;DHT22;9293;49.524;10.964;2023-05-15T05:24:09;12.10;99.90
18335;DHT22;9293;49.524;10.964;2023-05-15T05:26:38;12.30;99.90
18335;DHT22;9293;49.524;10.964;2023-05-15T05:29:09;12.50;99.90
18335;DHT22;9293;49.524;10.964;2023-05-15T05:31:37;12.70;99.90
18335;DHT22;9293;49.524;10.964;2023-05-15T05:34:05;12.80;99.90
18335;DHT22;9293;49.524;10.964;2023-05-15T05:36:34;12.90;99.90
18335;DHT22;9293;49.524;10.964;2023-05-15T05:39:03;13.00;99.90
18335;DHT22;9293;49.524;10.964;2023-05-15T05:41:32;13.10;99.90
18335;DHT22;9293;49.524;10.964;2023-05-15T05:44:00;13.10;99.90
18335;DHT22;9293;49.524;10.964;2023-05-15T05:46:28;13.20;99.90
18335;DHT22;9293;49.524;10.964;2023-05-15T05:48:56;13.30;99.90
18335;DHT22;9293;49.524;10.964;2023-05-15T05:51:25;13.40;99.90
18335;DHT22;9293;49.524;10.964;2023-05-15T05:53:53;13.40;99.90
18335;DHT22;9293;49.524;10.964;2023-05-15T05:56:21;13.50;99.90
18335;DHT22;9293;49.524;10.964;2023-05-15T05:58:53;13.60;99.90
18335;DHT22;9293;49.524;10.964;2023-05-15T06:01:26;13.70;99.90
18335;DHT22;9293;49.524;10.964;2023-05-15T06:03:55;13.60;99.90
18335;DHT22;9293;49.524;10.964;2023-05-15T06:06:24;13.80;99.90
18335;DHT22;9293;49.524;10.964;2023-05-15T06:08:53;14.00;99.90
18335;DHT22;9293;49.524;10.964;2023-05-15T06:11:22;14.20;99.90
18335;DHT22;9293;49.524;10.964;2023-05-15T06:13:51;14.20;99.90
18335;DHT22;9293;49.524;10.964;2023-05-15T06:16:20;14.40;99.90
18335;DHT22;9293;49.524;10.964;2023-05-15T06:18:53;14.90;99.90
18335;DHT22;9293;49.524;10.964;2023-05-15T06:21:21;14.80;99.90
18335;DHT22;9293;49.524;10.964;2023-05-15T06:23:50;14.70;99.90
18335;DHT22;9293;49.524;10.964;2023-05-15T06:26:18;14.60;99.90
18335;DHT22;9293;49.524;10.964;2023-05-15T06:28:46;14.80;99.90
18335;DHT22;9293;49.524;10.964;2023-05-15T06:31:14;15.20;99.90
18335;DHT22;9293;49.524;10.964;2023-05-15T06:33:44;15.50;99.90
18335;DHT22;9293;49.524;10.964;2023-05-15T06:36:12;15.70;99.90
18335;DHT22;9293;49.524;10.964;2023-05-15T06:38:41;15.80;99.90
18335;DHT22;9293;49.524;10.964;2023-05-15T06:41:09;15.80;99.90
18335;DHT22;9293;49.524;10.964;2023-05-15T06:43:38;15.70;99.90
18335;DHT22;9293;49.524;10.964;2023-05-15T06:46:07;15.70;99.90
18335;DHT22;9293;49.524;10.964;2023-05-15T06:48:39;16.00;99.90
18335;DHT22;9293;49.524;10.964;2023-05-15T06:51:07;16.30;99.90
18335;DHT22;9293;49.524;10.964;2023-05-15T06:53:35;16.70;99.90
18335;DHT22;9293;49.524;10.964;2023-05-15T06:56:04;16.80;99.90
18335;DHT22;9293;49.524;10.964;2023-05-15T06:58:32;17.00;99.90
18335;DHT22;9293;49.524;10.964;2023-05-15T07:01:01;17.10;99.90
18335;DHT22;9293;49.524;10.964;2023-05-15T07:03:30;17.30;99.90
18335;DHT22;9293;49.524;10.964;2023-05-15T07:05:58;17.60;99.90
18335;DHT22;9293;49.524;10.964;2023-05-15T07:08:26;17.80;99.90
18335;DHT22;9293;49.524;10.964;2023-05-15T07:10:55;17.90;99.90
18335;DHT22;9293;49.524;10.964;2023-05-15T07:13:23;17.80;99.90
18335;DHT22;9293;49.524;10.964;2023-05-15T07:15:51;17.70;99.90
18335;DHT22;9293;49.524;10.964;2023-05-15T07:18:19;17.60;99.90
18335;DHT22;9293;49.524;10.964;2023-05-15T07:20:47;17.50;99.90
18335;DHT22;9293;49.524;10.964;2023-05-15T07:23:15;17.70;99.90
18335;DHT22;9293;49.524;10.964;2023-05-15T07:25:43;17.90;99.90
18335;DHT22;9293;49.524;10.964;2023-05-15T07:28:11;18.00;99.90
18335;DHT22;9293;49.524;10.964;2023-05-15T07:30:39;18.40;99.90
18335;DHT22;9293;49.524;10.964;2023-05-15T07:33:08;18.70;99.90
18335;DHT22;9293;49.524;10.964;2023-05-15T07:35:39;19.00;99.90
18335;DHT22;9293;49.524;10.964;2023-05-15T07:38:10;19.30;99.90
18335;DHT22;9293;49.524;10.964;2023-05-15T07:40:41;19.70;99.90
18335;DHT22;9293;49.524;10.964;2023-05-15T07:43:09;19.90;99.90
18335;DHT22;9293;49.524;10.964;2023-05-15T07:45:37;20.00;99.90
18335;DHT22;9293;49.524;10.964;2023-05-15T07:50:43;19.50;99.90
18335;DHT22;9293;49.524;10.964;2023-05-15T07:53:12;19.70;99.90
18335;DHT22;9293;49.524;10.964;2023-05-15T07:55:40;20.00;99.90
18335;DHT22;9293;49.524;10.964;2023-05-15T07:58:08;19.90;99.90
18335;DHT22;9293;49.524;10.964;2023-05-15T08:00:36;20.20;99.90
18335;DHT22;9293;49.524;10.964;2023-05-15T08:03:05;20.40;99.90
18335;DHT22;9293;49.524;10.964;2023-05-15T08:05:33;20.10;99.90
18335;DHT22;9293;49.524;10.964;2023-05-15T08:08:01;20.00;99.90
18335;DHT22;9293;49.524;10.964;2023-05-15T08:10:29;20.10;99.90
18335;DHT22;9293;49.524;10.964;2023-05-15T08:12:57;20.50;99.90
18335;DHT22;9293;49.524;10.964;2023-05-15T08:15:25;20.70;99.90
18335;DHT22;9293;49.524;10.964;2023-05-15T08:17:53;20.80;99.90
18335;DHT22;9293;49.524;10.964;2023-05-15T08:20:22;20.90;99.90
18335;DHT22;9293;49.524;10.964;2023-05-15T08:22:50;21.20;99.90
18335;DHT22;9293;49.524;10.964;2023-05-15T08:25:18;20.90;99.90
18335;DHT22;9293;49.524;10.964;2023-05-15T08:27:46;20.70;99.90
18335;DHT22;9293;49.524;10.964;2023-05-15T08:30:14;20.70;99.90
18335;DHT22;9293;49.524;10.964;2023-05-15T08:32:42;20.90;99.90
18335;DHT22;9293;49.524;10.964;2023-05-15T08:35:12;21.00;99.90
18335;DHT22;9293;49.524;10.964;2023-05-15T08:37:40;21.40;99.90
18335;DHT22;9293;49.524;10.964;2023-05-15T08:40:08;21.60;99.90
18335;DHT22;9293;49.524;10.964;2023-05-15T08:42:43;21.80;99.90
18335;DHT22;9293;49.524;10.964;2023-05-15T08:45:12;22.20;99.90
18335;DHT22;9293;49.524;10.964;2023-05-15T08:47:41;22.20;99.90
18335;DHT22;9293;49.524;10.964;2023-05-15T08:50:13;21.80;99.90
18335;DHT22;9293;49.524;10.964;2023-05-15T08:52:42;21.40;99.90
18335;DHT22;9293;49.524;10.964;2023-05-15T08:55:13;21.30;99.90
18335;DHT22;9293;49.524;10.964;2023-05-15T08:57:42;21.40;99.90
18335;DHT22;9293;49.524;10.964;2023-05-15T09:00:14;21.90;99.90
18335;DHT22;9293;49.524;10.964;2023-05-15T09:02:44;22.20;99.90
18335;DHT22;9293;49.524;10.964;2023-05-15T09:05:12;22.60;99.90
18335;DHT22;9293;49.524;10.964;2023-05-15T09:07:40;22.90;99.90
18335;DHT22;9293;49.524;10.964;2023-05-15T09:10:09;22.20;99.90
18335;DHT22;9293;49.524;10.964;2023-05-15T09:12:40;21.70;99.90
18335;DHT22;9293;49.524;10.964;2023-05-15T09:17:36;20.90;99.90
18335;DHT22;9293;49.524;10.964;2023-05-15T09:20:05;20.70;99.90
18335;DHT22;9293;49.524;10.964;2023-05-15T09:22:34;20.40;99.90
18335;DHT22;9293;49.524;10.964;2023-05-15T09:25:05;20.20;99.90
18335;DHT22;9293;49.524;10.964;2023-05-15T09:27:44;20.30;99.90
18335;DHT22;9293;49.524;10.964;2023-05-15T09:30:13;20.60;99.90
18335;DHT22;9293;49.524;10.964;2023-05-15T09:32:44;20.40;99.90
18335;DHT22;9293;49.524;10.964;2023-05-15T09:38:16;20.50;99.90
18335;DHT22;9293;49.524;10.964;2023-05-15T09:40:45;20.20;99.90
18335;DHT22;9293;49.524;10.964;2023-05-15T09:43:14;20.00;99.90
18335;DHT22;9293;49.524;10.964;2023-05-15T09:45:43;19.90;99.90
18335;DHT22;9293;49.524;10.964;2023-05-15T09:48:15;19.10;99.90
18335;DHT22;9293;49.524;10.964;2023-05-15T09:50:43;18.00;99.90
18335;DHT22;9293;49.524;10.964;2023-05-15T09:53:11;16.60;99.90
18335;DHT22;9293;49.524;10.964;2023-05-15T09:55:46;15.90;99.90
18335;DHT22;9293;49.524;10.964;2023-05-15T09:58:15;15.60;99.90
18335;DHT22;9293;49.524;10.964;2023-05-15T10:00:45;15.60;99.90
18335;DHT22;9293;49.524;10.964;2023-05-15T10:03:18;15.70;99.90
18335;DHT22;9293;49.524;10.964;2023-05-15T10:05:49;15.80;99.90
18335;DHT22;9293;49.524;10.964;2023-05-15T10:08:24;15.80;99.90
18335;DHT22;9293;49.524;10.964;2023-05-15T10:10:54;15.70;99.90
18335;DHT22;9293;49.524;10.964;2023-05-15T10:13:26;15.60;99.90
18335;DHT22;9293;49.524;10.964;2023-05-15T10:15:54;15.60;99.90
18335;DHT22;9293;49.524;10.964;2023-05-15T10:18:24;15.50;99.90
18335;DHT22;9293;49.524;10.964;2023-05-15T10:20:56;15.60;99.90
18335;DHT22;9293;49.524;10.964;2023-05-15T10:23:31;15.40;99.90
18335;DHT22;9293;49.524;10.964;2023-05-15T10:26:06;15.30;99.90
18335;DHT22;9293;49.524;10.964;2023-05-15T10:28:35;15.10;99.90
18335;DHT22;9293;49.524;10.964;2023-05-15T10:31:04;14.90;99.90
18335;DHT22;9293;49.524;10.964;2023-05-15T10:33:32;15.00;99.90
18335;DHT22;9293;49.524;10.964;2023-05-15T10:36:02;15.20;99.90
18335;DHT22;9293;49.524;10.964;2023-05-15T10:38:31;15.40;99.90
18335;DHT22;9293;49.524;10.964;2023-05-15T10:40:59;15.60;99.90
18335;DHT22;9293;49.524;10.964;2023-05-15T10:43:41;15.70;99.90
18335;DHT22;9293;49.524;10.964;2023-05-15T10:46:10;15.90;99.90
18335;DHT22;9293;49.524;10.964;2023-05-15T10:48:38;16.10;99.90
18335;DHT22;9293;49.524;10.964;2023-05-15T10:51:17;16.40;99.90
18335;DHT22;9293;49.524;10.964;2023-05-15T10:53:45;16.70;99.90
18335;DHT22;9293;49.524;10.964;2023-05-15T10:56:14;16.90;99.90
18335;DHT22;9293;49.524;10.964;2023-05-15T10:58:44;16.90;99.90
18335;DHT22;9293;49.524;10.964;2023-05-15T11:01:33;16.90;99.90
18335;DHT22;9293;49.524;10.964;2023-05-15T11:06:35;16.80;99.90
18335;DHT22;9293;49.524;10.964;2023-05-15T11:11:54;17.00;99.90
18335;DHT22;9293;49.524;10.964;2023-05-15T11:14:27;17.10;99.90
18335;DHT22;9293;49.524;10.964;2023-05-15T11:16:56;17.30;99.90
18335;DHT22;9293;49.524;10.964;2023-05-15T11:24:30;18.80;99.90
18335;DHT22;9293;49.524;10.964;2023-05-15T11:27:02;19.30;99.90
18335;DHT22;9293;49.524;10.964;2023-05-15T11:29:31;19.80;99.90
18335;DHT22;9293;49.524;10.964;2023-05-15T11:31:59;20.30;99.90
18335;DHT22;9293;49.524;10.964;2023-05-15T11:34:39;20.70;99.90
18335;DHT22;9293;49.524;10.964;2023-05-15T11:37:09;21.00;99.90
18335;DHT22;9293;49.524;10.964;2023-05-15T11:39:43;21.20;99.90
18335;DHT22;9293;49.524;10.964;2023-05-15T11:42:12;21.00;99.90
18335;DHT22;9293;49.524;10.964;2023-05-15T11:44:40;21.30;99.90
18335;DHT22;9293;49.524;10.964;2023-05-15T11:47:08;21.70;99.90
18335;DHT22;9293;49.524;10.964;2023-05-15T11:49:37;21.70;99.90
18335;DHT22;9293;49.524;10.964;2023-05-15T11:52:05;21.50;99.90
18335;DHT22;9293;49.524;10.964;2023-05-15T11:54:33;21.70;99.90
18335;DHT22;9293;49.524;10.964;2023-05-15T11:57:02;22.10;99.90
18335;DHT22;9293;49.524;10.964;2023-05-15T11:59:34;22.30;99.90
18335;DHT22;9293;49.524;10.964;2023-05-15T12:02:02;22.20;99.90
18335;DHT22;9293;49.524;10.964;2023-05-15T12:04:32;22.00;99.90
18335;DHT22;9293;49.524;10.964;2023-05-15T12:07:01;21.40;99.90
18335;DHT22;9293;49.524;10.964;2023-05-15T12:09:29;21.00;99.90
18335;DHT22;9293;49.524;10.964;2023-05-15T12:11:57;20.60;99.90
18335;DHT22;9293;49.524;10.964;2023-05-15T12:14:29;20.20;99.90
18335;DHT22;9293;49.524;10.964;2023-05-15T12:17:00;19.80;99.90
18335;DHT22;9293;49.524;10.964;2023-05-15T12:19:34;19.40;99.90
18335;DHT22;9293;49.524;10.964;2023-05-15T12:22:05;19.10;99.90
18335;DHT22;9293;49.524;10.964;2023-05-15T12:24:36;18.90;99.90
18335;DHT22;9293;49.524;10.964;2023-05-15T12:27:06;18.80;99.90
18335;DHT22;9293;49.524;10.964;2023-05-15T12:29:45;18.70;99.90
18335;DHT22;9293;49.524;10.964;2023-05-15T12:32:13;18.70;99.90
18335;DHT22;9293;49.524;10.964;2023-05-15T12:34:42;18.70;99.90
18335;DHT22;9293;49.524;10.964;2023-05-15T12:37:12;18.80;99.90
18335;DHT22;9293;49.524;10.964;2023-05-15T12:39:50;19.00;99.90
18335;DHT22;9293;49.524;10.964;2023-05-15T12:42:19;19.60;99.90
18335;DHT22;9293;49.524;10.964;2023-05-15T12:44:50;20.40;99.90
18335;DHT22;9293;49.524;10.964;2023-05-15T12:47:23;20.80;99.90
18335;DHT22;9293;49.524;10.964;2023-05-15T12:49:55;21.20;99.90
18335;DHT22;9293;49.524;10.964;2023-05-15T12:52:26;21.50;99.90
18335;DHT22;9293;49.524;10.964;2023-05-15T12:54:54;21.80;99.90
18335;DHT22;9293;49.524;10.964;2023-05-15T12:57:26;22.10;99.90
18335;DHT22;9293;49.524;10.964;2023-05-15T12:59:54;22.20;99.90
18335;DHT22;9293;49.524;10.964;2023-05-15T13:02:22;22.20;99.90
18335;DHT22;9293;49.524;10.964;2023-05-15T13:04:50;22.20;99.90
18335;DHT22;9293;49.524;10.964;2023-05-15T13:07:19;22.30;99.90
18335;DHT22;9293;49.524;10.964;2023-05-15T13:10:00;22.40;99.90
18335;DHT22;9293;49.524;10.964;2023-05-15T13:12:34;22.30;99.90
18335;DHT22;9293;49.524;10.964;2023-05-15T13:15:04;22.10;99.90
18335;DHT22;9293;49.524;10.964;2023-05-15T13:17:40;22.10;99.90
18335;DHT22;9293;49.524;10.964;2023-05-15T13:20:09;22.40;99.90
18335;DHT22;9293;49.524;10.964;2023-05-15T13:22:37;22.40;99.90
18335;DHT22;9293;49.524;10.964;2023-05-15T13:25:05;22.50;99.90
18335;DHT22;9293;49.524;10.964;2023-05-15T13:27:35;22.60;99.90
18335;DHT22;9293;49.524;10.964;2023-05-15T13:30:03;22.60;99.90
18335;DHT22;9293;49.524;10.964;2023-05-15T13:32:32;22.70;99.90
18335;DHT22;9293;49.524;10.964;2023-05-15T13:35:00;22.70;99.90
18335;DHT22;9293;49.524;10.964;2023-05-15T13:37:28;22.50;99.90
18335;DHT22;9293;49.524;10.964;2023-05-15T13:39:59;22.60;99.90
18335;DHT22;9293;49.524;10.964;2023-05-15T13:42:36;22.60;99.90
18335;DHT22;9293;49.524;10.964;2023-05-15T13:45:05;22.60;99.90
18335;DHT22;9293;49.524;10.964;2023-05-15T13:47:33;22.70;99.90
18335;DHT22;9293;49.524;10.964;2023-05-15T13:50:02;22.40;99.90
18335;DHT22;9293;49.524;10.964;2023-05-15T13:52:31;22.20;99.90
18335;DHT22;9293;49.524;10.964;2023-05-15T13:55:00;22.30;99.90
18335;DHT22;9293;49.524;10.964;2023-05-15T13:57:29;22.60;99.90
18335;DHT22;9293;49.524;10.964;2023-05-15T13:59:59;22.70;99.90
18335;DHT22;9293;49.524;10.964;2023-05-15T14:02:32;22.70;99.90
18335;DHT22;9293;49.524;10.964;2023-05-15T14:05:03;22.60;99.90
18335;DHT22;9293;49.524;10.964;2023-05-15T14:07:32;22.30;99.90
18335;DHT22;9293;49.524;10.964;2023-05-15T14:10:01;22.10;99.90
18335;DHT22;9293;49.524;10.964;2023-05-15T14:12:29;22.00;99.90
18335;DHT22;9293;49.524;10.964;2023-05-15T14:15:00;21.80;99.90
18335;DHT22;9293;49.524;10.964;2023-05-15T14:17:38;21.60;99.90
18335;DHT22;9293;49.524;10.964;2023-05-15T14:20:07;21.70;99.90
18335;DHT22;9293;49.524;10.964;2023-05-15T14:22:37;21.60;99.90
18335;DHT22;9293;49.524;10.964;2023-05-15T14:25:06;21.40;99.90
18335;DHT22;9293;49.524;10.964;2023-05-15T14:27:39;21.40;99.90
18335;DHT22;9293;49.524;10.964;2023-05-15T14:30:16;21.30;99.90
18335;DHT22;9293;49.524;10.964;2023-05-15T14:32:47;21.30;99.90
18335;DHT22;9293;49.524;10.964;2023-05-15T14:35:25;21.40;99.90
18335;DHT22;9293;49.524;10.964;2023-05-15T14:37:53;21.40;99.90
18335;DHT22;9293;49.524;10.964;2023-05-15T14:40:22;21.40;99.90
18335;DHT22;9293;49.524;10.964;2023-05-15T14:42:51;21.50;99.90
18335;DHT22;9293;49.524;10.964;2023-05-15T14:45:19;21.60;99.90
18335;DHT22;9293;49.524;10.964;2023-05-15T14:47:48;21.70;99.90
18335;DHT22;9293;49.524;10.964;2023-05-15T14:50:23;22.00;99.90
18335;DHT22;9293;49.524;10.964;2023-05-15T14:52:52;22.30;99.90
18335;DHT22;9293;49.524;10.964;2023-05-15T14:55:24;22.60;99.90
18335;DHT22;9293;49.524;10.964;2023-05-15T14:57:56;22.70;99.90
18335;DHT22;9293;49.524;10.964;2023-05-15T15:00:27;22.60;99.90
18335;DHT22;9293;49.524;10.964;2023-05-15T15:02:58;22.40;99.90
18335;DHT22;9293;49.524;10.964;2023-05-15T15:05:47;22.50;99.90
18335;DHT22;9293;49.524;10.964;2023-05-15T15:08:17;22.70;99.90
18335;DHT22;9293;49.524;10.964;2023-05-15T15:10:46;22.80;99.90
18335;DHT22;9293;49.524;10.964;2023-05-15T15:13:14;23.10;99.90
18335;DHT22;9293;49.524;10.964;2023-05-15T15:15:47;23.40;99.90
18335;DHT22;9293;49.524;10.964;2023-05-15T15:18:23;23.20;99.90
18335;DHT22;9293;49.524;10.964;2023-05-15T15:20:51;22.90;99.90
18335;DHT22;9293;49.524;10.964;2023-05-15T15:23:20;22.60;99.90
18335;DHT22;9293;49.524;10.964;2023-05-15T15:25:48;22.30;99.90
18335;DHT22;9293;49.524;10.964;2023-05-15T15:28:16;22.30;99.90
18335;DHT22;9293;49.524;10.964;2023-05-15T15:30:44;22.20;99.90
18335;DHT22;9293;49.524;10.964;2023-05-15T15:33:13;22.40;99.90
18335;DHT22;9293;49.524;10.964;2023-05-15T15:35:41;22.50;99.90
18335;DHT22;9293;49.524;10.964;2023-05-15T15:38:09;22.30;99.90
18335;DHT22;9293;49.524;10.964;2023-05-15T15:40:39;22.20;99.90
18335;DHT22;9293;49.524;10.964;2023-05-15T15:43:07;22.00;99.90
18335;DHT22;9293;49.524;10.964;2023-05-15T15:45:35;21.70;99.90
18335;DHT22;9293;49.524;10.964;2023-05-15T15:48:03;21.40;99.90
18335;DHT22;9293;49.524;10.964;2023-05-15T15:50:31;21.30;99.90
18335;DHT22;9293;49.524;10.964;2023-05-15T15:52:59;21.20;99.90
18335;DHT22;9293;49.524;10.964;2023-05-15T15:55:27;21.10;99.90
18335;DHT22;9293;49.524;10.964;2023-05-15T15:57:55;21.10;99.90
18335;DHT22;9293;49.524;10.964;2023-05-15T16:00:24;21.00;99.90
18335;DHT22;9293;49.524;10.964;2023-05-15T16:02:52;21.00;99.90
18335;DHT22;9293;49.524;10.964;2023-05-15T16:05:20;20.90;99.90
18335;DHT22;9293;49.524;10.964;2023-05-15T16:07:48;20.90;99.90
18335;DHT22;9293;49.524;10.964;2023-05-15T16:10:17;20.60;99.90
18335;DHT22;9293;49.524;10.964;2023-05-15T16:12:45;20.40;99.90
18335;DHT22;9293;49.524;10.964;2023-05-15T16:15:14;20.20;99.90